Pagina principale
METAR-TAF:

METAR-TAF

Aeroporti :

Grosseto, Italia

Aeroporto di Grosseto

latitudine: 42-45N, longitudine: 011-04E, altezza: 5 m

Osservazione

Il bollettino è stato emesso 1 ora e 0 minuti fa, alle 23:55 UTC
Vento 5 kt da sud
Temperature 11°C
Umidità 82%
Pressione 1008 hPa
Visibilità 10 km o più
Poco nuvoloso ad un'altezza di 1800 ft
Nuvoloso ad un'altezza di 6000 ft

METAR: LIRS 162355Z 19005KT 9999 FEW018 BKN060 11/08 Q1008 RMK BKN VIS MIN 9999 WIND THR03 19004KT WIND THR21 30003KT BLU

Ora: 01:55 (00:55 UTC)

Previsione

Il bollettino è stato emesso 1 ora e 55 minuti fa, alle 23:00 UTC
Previsione valida dal 17 alle 00 UTC al 17 alle 09 UTC
Vento 12 kt da ovest/sud-ovest
Visibilità 10 km o più
Nubi sparse ad un'altezza di 3000 ft
Nubi sparse ad un'altezza di 5000 ft
Temporaneamente
dal 17 alle 03 UTC al 17 alle 07 UTC
Vento 20 kt da ovest/sud-ovest con raffiche fino a 30 kt

TAF: LIRS 162300Z 1700/1709 24012KT 9999 SCT030 SCT050 TEMPO 1703/1707 25020G30KT

Osservazioni e previsioni meteorologiche di più di 4000 aeroporti (messaggi METAR e TAF).

Le stazioni disponibili sono rappresentate dai dischi gialli e rossi sulla carta.

Puntare il mouse per vedere il nome della stazione.

Clicca sopra per visualizzare le osservazioni e previsioni meteorologiche.

Per cambiare la mappa : fare clic sui pulsanti verdi con una croce nera per ingrandire, il pulsante verde con un trattino per diminuire, o sulla freccia verde per le mappe adiacenti.


METAR-TAF: